Time;durP1;ratioP1;P1;durP2;ratioP2;P2;SDS_P1;SDS_P2;PMS_P1;PMS_P2;Temp;Humidity;BMP_temperature;BMP_pressure;BME280_temperature;BME280_humidity;BME280_pressure;Samples;Min_cycle;Max_cycle;Signal;HPM_P1;HPM_P2
2020/12/26 00:00:16;;;;;;;0.10;0.10;;;15.50;67.90;;;;;;5006656;28;20466;-75
2020/12/26 00:02:46;;;;;;;0.30;0.20;;;15.50;67.90;;;;;;5024791;28;20029;-75
2020/12/26 00:05:15;;;;;;;0.20;0.20;;;15.40;67.90;;;;;;5031170;28;20100;-77
2020/12/26 00:07:40;;;;;;;0.10;0.10;;;15.50;67.90;;;;;;5012180;28;20540;-76
2020/12/26 00:10:09;;;;;;;0.30;0.25;;;15.50;67.90;;;;;;5035440;28;20168;-75
2020/12/26 00:12:47;;;;;;;0.10;0.10;;;15.50;67.90;;;;;;5015463;28;20162;-75
2020/12/26 00:15:18;;;;;;;0.20;0.20;;;15.50;67.90;;;;;;5016451;28;20084;-75
2020/12/26 00:17:48;;;;;;;0.30;0.30;;;15.40;67.90;;;;;;5013298;28;20096;-75
2020/12/26 00:20:27;;;;;;;0.17;0.17;;;15.40;67.90;;;;;;5010596;28;20025;-75
2020/12/26 00:22:57;;;;;;;0.10;0.10;;;15.40;67.90;;;;;;5030370;28;20113;-75
2020/12/26 00:25:27;;;;;;;0.20;0.20;;;15.40;67.90;;;;;;5028856;28;20025;-75
2020/12/26 00:27:55;;;;;;;0.10;0.10;;;15.50;67.90;;;;;;5030569;28;20029;-75
2020/12/26 00:30:26;;;;;;;;;;;15.50;67.90;;;;;;5016689;28;20435;-75
2020/12/26 00:32:55;;;;;;;0.10;0.10;;;15.40;67.90;;;;;;5029235;28;19956;-75
2020/12/26 00:35:25;;;;;;;0.15;0.15;;;15.40;67.90;;;;;;5028065;28;20029;-75
2020/12/26 00:38:03;;;;;;;0.30;0.10;;;15.40;67.90;;;;;;5025230;28;20029;-75
2020/12/26 00:40:29;;;;;;;0.10;0.10;;;15.40;67.90;;;;;;5031505;28;20022;-75
2020/12/26 00:42:59;;;;;;;0.17;0.17;;;15.40;67.90;;;;;;5031819;28;20076;-76
2020/12/26 00:45:25;;;;;;;0.20;0.20;;;15.40;67.90;;;;;;5032300;28;20448;-75
2020/12/26 00:47:56;;;;;;;0.10;0.10;;;15.40;67.90;;;;;;5024080;28;20022;-75
2020/12/26 00:50:26;;;;;;;0.10;0.10;;;15.40;67.80;;;;;;5014800;28;20068;-75
2020/12/26 00:52:52;;;;;;;0.10;0.10;;;15.40;67.80;;;;;;5018154;28;20087;-75
2020/12/26 00:55:30;;;;;;;0.10;0.10;;;15.50;67.90;;;;;;5008009;28;20034;-75
2020/12/26 00:58:01;;;;;;;0.20;0.20;;;15.40;67.90;;;;;;5027021;28;20033;-75
2020/12/26 01:00:31;;;;;;;0.10;0.10;;;15.50;67.90;;;;;;5028248;28;20056;-75
2020/12/26 01:03:02;;;;;;;0.20;0.20;;;15.50;67.80;;;;;;5030466;28;20068;-75
2020/12/26 01:05:30;;;;;;;0.20;0.20;;;15.40;67.90;;;;;;5014999;28;20034;-75
2020/12/26 01:07:57;;;;;;;0.10;0.10;;;15.40;67.90;;;;;;5009560;28;20041;-75
2020/12/26 01:10:23;;;;;;;0.10;0.10;;;15.40;67.90;;;;;;5009131;28;20478;-77
2020/12/26 01:13:03;;;;;;;0.05;0.05;;;15.40;67.90;;;;;;5034073;28;20078;-75
2020/12/26 01:15:33;;;;;;;0.13;0.13;;;15.40;67.90;;;;;;5025969;28;20037;-76
2020/12/26 01:18:03;;;;;;;0.10;0.10;;;15.40;67.90;;;;;;5022052;28;20037;-75
2020/12/26 01:20:33;;;;;;;0.10;0.10;;;15.40;67.90;;;;;;5030492;28;20029;-76
2020/12/26 01:23:04;;;;;;;0.20;0.20;;;15.40;67.90;;;;;;5030029;28;20460;-76
2020/12/26 01:25:35;;;;;;;0.20;0.20;;;15.40;67.90;;;;;;5030980;28;20034;-75
2020/12/26 01:28:05;;;;;;;0.20;0.20;;;15.40;67.80;;;;;;5026136;28;20115;-75
2020/12/26 01:30:36;;;;;;;0.20;0.20;;;15.40;67.90;;;;;;5008528;28;20463;-75
2020/12/26 01:33:01;;;;;;;0.10;0.10;;;15.40;67.90;;;;;;5014390;28;20026;-75
2020/12/26 01:35:32;;;;;;;0.20;0.20;;;15.40;67.90;;;;;;5031168;28;20034;-75
2020/12/26 01:37:57;;;;;;;0.17;0.10;;;15.40;67.80;;;;;;5033051;28;20472;-75
2020/12/26 01:40:35;;;;;;;0.30;0.20;;;15.40;67.80;;;;;;5026519;28;20022;-77
2020/12/26 01:43:09;;;;;;;0.10;0.10;;;15.40;67.90;;;;;;5023019;28;20455;-75
2020/12/26 01:45:39;;;;;;;0.10;0.10;;;15.40;67.90;;;;;;5018625;28;20043;-75
2020/12/26 01:48:16;;;;;;;0.75;0.13;;;15.40;67.80;;;;;;5004188;28;20536;-75
2020/12/26 01:50:57;;;;;;;0.10;0.10;;;15.40;67.80;;;;;;5025685;28;20034;-75
2020/12/26 01:53:27;;;;;;;0.10;0.10;;;15.40;67.80;;;;;;5010940;28;20041;-77
2020/12/26 01:55:58;;;;;;;0.20;0.20;;;15.40;67.90;;;;;;5021619;28;20077;-74
2020/12/26 01:58:34;;;;;;;0.20;0.10;;;15.40;67.90;;;;;;5024990;28;20029;-76
2020/12/26 02:01:00;;;;;;;0.20;0.20;;;15.40;67.80;;;;;;5023136;28;20042;-76
2020/12/26 02:03:26;;;;;;;0.10;0.10;;;15.30;67.90;;;;;;5026242;28;20034;-76
2020/12/26 02:06:04;;;;;;;0.20;0.20;;;15.40;67.90;;;;;;5029339;28;20021;-75
2020/12/26 02:08:35;;;;;;;0.10;0.10;;;15.30;67.80;;;;;;5024160;28;20048;-78
2020/12/26 02:11:07;;;;;;;0.20;0.20;;;15.40;67.80;;;;;;5024036;28;20053;-76
2020/12/26 02:13:33;;;;;;;0.15;0.15;;;15.40;67.80;;;;;;5014980;28;20034;-77
2020/12/26 02:16:13;;;;;;;0.20;0.20;;;15.40;67.80;;;;;;5027373;28;20025;-76
2020/12/26 02:18:39;;;;;;;0.20;0.20;;;15.30;67.80;;;;;;5027852;28;20112;-76
2020/12/26 02:21:09;;;;;;;0.20;0.20;;;15.40;67.80;;;;;;5012363;28;20128;-75
2020/12/26 02:23:42;;;;;;;0.10;0.10;;;15.30;67.80;;;;;;5030585;28;20040;-77
2020/12/26 02:26:13;;;;;;;0.10;0.10;;;15.30;67.80;;;;;;5023671;28;20084;-75
2020/12/26 02:28:53;;;;;;;0.20;0.20;;;15.30;67.90;;;;;;5025755;28;20061;-77
2020/12/26 02:31:32;;;;;;;0.20;0.20;;;15.30;67.90;;;;;;5031167;28;20453;-75
2020/12/26 02:34:06;;;;;;;0.28;0.25;;;15.30;67.90;;;;;;5028481;28;20037;-75
2020/12/26 02:36:44;;;;;;;0.10;0.10;;;15.40;67.90;;;;;;5012254;28;20037;-76
2020/12/26 02:39:10;;;;;;;0.10;0.10;;;15.30;67.90;;;;;;5015168;28;20031;-75
2020/12/26 02:41:49;;;;;;;0.30;0.20;;;15.30;67.90;;;;;;5026699;28;20037;-75
2020/12/26 02:44:15;;;;;;;0.20;0.20;;;15.30;67.90;;;;;;5029772;28;20025;-77
2020/12/26 02:46:49;;;;;;;0.20;0.20;;;15.30;67.90;;;;;;5028721;28;20495;-76
2020/12/26 02:49:16;;;;;;;0.28;0.28;;;15.30;67.90;;;;;;5021667;28;20530;-75
2020/12/26 02:51:41;;;;;;;0.32;0.20;;;15.30;67.90;;;;;;5028644;28;20032;-76
2020/12/26 02:54:11;;;;;;;0.30;0.30;;;15.30;67.80;;;;;;5030906;28;20022;-75
2020/12/26 02:56:42;;;;;;;0.10;0.10;;;15.30;67.90;;;;;;5028635;28;20057;-75
2020/12/26 02:59:16;;;;;;;0.17;0.17;;;15.30;67.90;;;;;;5028542;28;20060;-75
2020/12/26 03:01:54;;;;;;;0.10;0.10;;;15.30;67.90;;;;;;5038144;28;20463;-75
2020/12/26 03:04:20;;;;;;;0.20;0.20;;;15.30;67.90;;;;;;5031312;28;20528;-77
2020/12/26 03:06:54;;;;;;;0.20;0.20;;;15.30;67.90;;;;;;5044850;28;20037;-76
2020/12/26 03:09:24;;;;;;;0.10;0.10;;;15.30;68.00;;;;;;5045575;28;20037;-75
2020/12/26 03:11:54;;;;;;;0.10;0.10;;;15.30;67.90;;;;;;5031813;28;20116;-75
2020/12/26 03:14:28;;;;;;;0.10;0.10;;;15.30;67.90;;;;;;5044708;28;20166;-77
2020/12/26 03:16:53;;;;;;;0.10;0.10;;;15.30;67.90;;;;;;5032884;28;20386;-76
2020/12/26 03:19:24;;;;;;;0.10;0.10;;;15.30;67.90;;;;;;5034255;28;20059;-75
2020/12/26 03:21:54;;;;;;;0.13;0.13;;;15.30;68.00;;;;;;5033714;28;20033;-77
2020/12/26 03:24:23;;;;;;;0.10;0.10;;;15.30;68.00;;;;;;5037535;28;20148;-76
2020/12/26 03:26:53;;;;;;;0.13;0.10;;;15.30;68.00;;;;;;5025405;28;20029;-75
2020/12/26 03:29:24;;;;;;;0.43;0.20;;;15.30;68.00;;;;;;5049654;28;20036;-76
2020/12/26 03:31:54;;;;;;;0.10;0.10;;;15.30;68.00;;;;;;5029890;28;20040;-76
2020/12/26 03:34:24;;;;;;;0.10;0.10;;;15.30;68.00;;;;;;5030400;28;20040;-75
2020/12/26 03:36:55;;;;;;;0.20;0.20;;;15.30;67.90;;;;;;5054955;28;20033;-75
2020/12/26 03:39:25;;;;;;;0.20;0.20;;;15.30;67.90;;;;;;5046660;28;20020;-75
2020/12/26 03:41:51;;;;;;;0.13;0.13;;;15.30;67.90;;;;;;5055444;28;20025;-75
2020/12/26 03:44:20;;;;;;;0.10;0.10;;;15.30;68.00;;;;;;5035547;28;20040;-76
2020/12/26 03:46:50;;;;;;;;;;;15.30;68.00;;;;;;5031353;28;20069;-75
2020/12/26 03:49:23;;;;;;;0.15;0.15;;;15.30;68.00;;;;;;5049509;28;20401;-75
2020/12/26 03:51:52;;;;;;;0.13;0.13;;;15.30;68.00;;;;;;5053734;28;20104;-75
2020/12/26 03:54:19;;;;;;;0.10;0.10;;;15.30;68.00;;;;;;5055456;28;20103;-75
2020/12/26 03:56:50;;;;;;;0.10;0.10;;;15.30;68.00;;;;;;5052187;28;20032;-76
2020/12/26 03:59:15;;;;;;;0.40;0.20;;;15.30;68.00;;;;;;5049191;28;20507;-74
2020/12/26 04:01:46;;;;;;;0.10;0.10;;;15.30;68.00;;;;;;5012663;28;20030;-75
2020/12/26 04:04:24;;;;;;;0.20;0.20;;;15.20;68.00;;;;;;5014899;28;20419;-75
2020/12/26 04:06:54;;;;;;;0.10;0.10;;;15.30;68.00;;;;;;5012797;28;20056;-79
2020/12/26 04:09:25;;;;;;;0.10;0.10;;;15.30;68.00;;;;;;5012655;28;20041;-75
2020/12/26 04:11:53;;;;;;;0.40;0.20;;;15.20;68.00;;;;;;5033708;28;20108;-75
2020/12/26 04:14:23;;;;;;;0.30;0.20;;;15.20;68.00;;;;;;5015796;28;20040;-76
2020/12/26 04:16:58;;;;;;;0.10;0.10;;;15.20;68.00;;;;;;5029874;28;20130;-75
2020/12/26 04:19:26;;;;;;;0.30;0.30;;;15.20;68.00;;;;;;5032627;28;20542;-75
2020/12/26 04:21:52;;;;;;;0.20;0.20;;;15.20;68.00;;;;;;5029202;28;20032;-75
2020/12/26 04:24:18;;;;;;;0.15;0.15;;;15.20;68.00;;;;;;5014989;28;20034;-76
2020/12/26 04:26:58;;;;;;;0.10;0.10;;;15.30;68.10;;;;;;5017205;28;20052;-75
2020/12/26 04:29:24;;;;;;;0.10;0.10;;;15.20;68.10;;;;;;5014948;28;20365;-76
2020/12/26 04:31:50;;;;;;;0.10;0.10;;;15.20;68.00;;;;;;5010757;28;20084;-75
2020/12/26 04:34:20;;;;;;;0.10;0.10;;;15.20;68.10;;;;;;5012035;28;20120;-75
2020/12/26 04:36:54;;;;;;;0.17;0.17;;;15.20;68.10;;;;;;5016722;28;20037;-75
2020/12/26 04:39:19;;;;;;;0.17;0.17;;;15.20;68.10;;;;;;5034627;28;20029;-75
2020/12/26 04:41:45;;;;;;;0.20;0.20;;;15.20;68.10;;;;;;5020891;28;20446;-75
2020/12/26 04:44:11;;;;;;;0.13;0.13;;;15.20;68.10;;;;;;5030227;28;20029;-75
2020/12/26 04:46:42;;;;;;;0.10;0.10;;;15.20;68.10;;;;;;5029350;28;20056;-75
2020/12/26 04:49:22;;;;;;;0.20;0.20;;;15.20;68.10;;;;;;5033774;28;20455;-75
2020/12/26 04:51:51;;;;;;;0.10;0.10;;;15.20;68.10;;;;;;5016359;28;20045;-75
2020/12/26 04:54:30;;;;;;;0.15;0.15;;;15.20;68.10;;;;;;5025198;28;20029;-76
2020/12/26 04:57:09;;;;;;;0.20;0.20;;;15.20;68.10;;;;;;5027388;28;20048;-75
2020/12/26 04:59:35;;;;;;;0.20;0.20;;;15.20;68.10;;;;;;5030757;28;20424;-76
2020/12/26 05:02:03;;;;;;;0.10;0.10;;;15.20;68.10;;;;;;5010338;28;20036;-76
2020/12/26 05:04:34;;;;;;;;;;;15.20;68.10;;;;;;5011765;28;20092;-75
2020/12/26 05:07:04;;;;;;;0.20;0.20;;;15.20;68.10;;;;;;5013045;28;19957;-76
2020/12/26 05:09:29;;;;;;;0.40;0.20;;;15.20;68.10;;;;;;5015169;28;20140;-75
2020/12/26 05:11:58;;;;;;;0.13;0.13;;;15.20;68.20;;;;;;5029279;28;20057;-75
2020/12/26 05:14:31;;;;;;;0.15;0.15;;;15.20;68.20;;;;;;5008855;28;20029;-76
2020/12/26 05:17:04;;;;;;;0.30;0.15;;;15.10;68.20;;;;;;5009569;28;20133;-75
2020/12/26 05:19:34;;;;;;;0.20;0.20;;;15.20;68.20;;;;;;5024771;28;20027;-76
2020/12/26 05:22:04;;;;;;;0.10;0.10;;;15.20;68.20;;;;;;5008841;28;20493;-75
2020/12/26 05:24:30;;;;;;;0.13;0.10;;;15.20;68.20;;;;;;5028312;28;20429;-75
2020/12/26 05:27:01;;;;;;;0.57;0.17;;;15.20;68.10;;;;;;5012190;28;20538;-75
2020/12/26 05:29:36;;;;;;;0.13;0.13;;;15.10;68.10;;;;;;5026042;28;20034;-75
2020/12/26 05:32:14;;;;;;;0.15;0.15;;;15.20;68.20;;;;;;5010005;28;20463;-75
2020/12/26 05:34:41;;;;;;;0.10;0.10;;;15.20;68.20;;;;;;5027524;28;20029;-76
2020/12/26 05:37:16;;;;;;;0.20;0.20;;;15.10;68.20;;;;;;5014320;28;20096;-76
2020/12/26 05:39:47;;;;;;;0.20;0.20;;;15.10;68.20;;;;;;5030362;28;20026;-75
2020/12/26 05:42:20;;;;;;;0.20;0.20;;;15.10;68.20;;;;;;5028225;28;20053;-75
2020/12/26 05:44:46;;;;;;;0.32;0.20;;;15.10;68.20;;;;;;5026779;28;20049;-74
2020/12/26 05:47:25;;;;;;;0.13;0.13;;;15.10;68.20;;;;;;5028575;28;20030;-76
2020/12/26 05:49:55;;;;;;;0.30;0.10;;;15.10;68.20;;;;;;5024415;28;20084;-75
2020/12/26 05:52:27;;;;;;;0.10;0.10;;;15.10;68.20;;;;;;5021997;28;20037;-75
2020/12/26 05:54:58;;;;;;;0.10;0.10;;;15.10;68.20;;;;;;5029656;28;20025;-75
2020/12/26 05:57:28;;;;;;;0.13;0.13;;;15.10;68.20;;;;;;5010451;28;20045;-76
2020/12/26 05:59:58;;;;;;;0.20;0.20;;;15.10;68.20;;;;;;5032226;28;20056;-76
2020/12/26 06:02:29;;;;;;;0.45;0.20;;;15.10;68.20;;;;;;5027142;28;20104;-75
2020/12/26 06:05:00;;;;;;;0.10;0.10;;;15.10;68.20;;;;;;5002489;28;20022;-75
2020/12/26 06:07:33;;;;;;;0.20;0.20;;;15.10;68.20;;;;;;5030126;28;20045;-76
2020/12/26 06:10:08;;;;;;;0.20;0.20;;;15.10;68.20;;;;;;5030619;28;20036;-76
2020/12/26 06:12:38;;;;;;;0.30;0.20;;;15.10;68.20;;;;;;5012523;28;20037;-75
2020/12/26 06:15:11;;;;;;;0.10;0.10;;;15.10;68.20;;;;;;5009923;28;20029;-75
2020/12/26 06:17:47;;;;;;;0.20;0.20;;;15.10;68.20;;;;;;5026274;28;20033;-75
2020/12/26 06:20:24;;;;;;;0.17;0.17;;;15.10;68.20;;;;;;5024638;28;20025;-75
2020/12/26 06:22:55;;;;;;;0.10;0.10;;;15.10;68.20;;;;;;5010163;28;20451;-75
2020/12/26 06:25:25;;;;;;;0.10;0.10;;;15.10;68.20;;;;;;5016951;28;20041;-75
2020/12/26 06:27:51;;;;;;;0.20;0.20;;;15.10;68.20;;;;;;5021614;28;20025;-75
2020/12/26 06:30:17;;;;;;;0.20;0.20;;;15.10;68.20;;;;;;5030824;28;20104;-75
2020/12/26 06:32:51;;;;;;;0.20;0.20;;;15.10;68.20;;;;;;5010463;28;20030;-76
2020/12/26 06:35:22;;;;;;;0.00;0.00;;;15.10;68.20;;;;;;5009885;28;20051;-75
2020/12/26 06:38:36;;;;;;;0.17;0.17;;;15.10;68.20;;;;;;5024565;28;20487;-76
2020/12/26 06:41:14;;;;;;;0.28;0.28;;;15.10;68.20;;;;;;5029380;28;20045;-75
2020/12/26 06:43:43;;;;;;;0.10;0.10;;;15.10;68.20;;;;;;5032291;28;20022;-76
2020/12/26 06:46:22;;;;;;;0.10;0.10;;;15.10;68.20;;;;;;5005483;28;20129;-76
2020/12/26 06:48:55;;;;;;;0.10;0.10;;;15.10;68.20;;;;;;5021101;28;20029;-76
2020/12/26 06:51:29;;;;;;;0.10;0.10;;;15.10;68.20;;;;;;5030712;28;20120;-75
2020/12/26 06:54:09;;;;;;;0.20;0.17;;;15.10;68.20;;;;;;5019625;28;20025;-77
2020/12/26 06:56:48;;;;;;;0.20;0.20;;;15.00;68.20;;;;;;5026189;28;20030;-76
2020/12/26 06:59:15;;;;;;;0.00;0.00;;;15.10;68.20;;;;;;5026566;28;20050;-76
2020/12/26 07:01:46;;;;;;;0.15;0.15;;;15.10;68.20;;;;;;5007760;28;20084;-75
2020/12/26 07:04:14;;;;;;;0.20;0.20;;;15.10;68.20;;;;;;5029203;28;20427;-75
2020/12/26 07:06:44;;;;;;;;;;;15.10;68.20;;;;;;5028186;28;20034;-76
2020/12/26 07:09:14;;;;;;;0.15;0.15;;;15.10;68.20;;;;;;4997560;28;19913;-75
2020/12/26 07:11:50;;;;;;;0.15;0.15;;;15.00;68.20;;;;;;5023296;28;20032;-76
2020/12/26 07:14:38;;;;;;;0.10;0.10;;;15.00;68.20;;;;;;5011053;28;20125;-76
2020/12/26 07:17:25;;;;;;;0.20;0.10;;;15.00;68.20;;;;;;5004946;28;20048;-75
2020/12/26 07:19:59;;;;;;;0.20;0.20;;;15.10;68.20;;;;;;5028314;28;20130;-76
2020/12/26 07:22:31;;;;;;;0.10;0.10;;;15.00;68.20;;;;;;5024237;28;20049;-76
2020/12/26 07:25:04;;;;;;;0.08;0.08;;;15.10;68.20;;;;;;5010353;28;20080;-76
2020/12/26 07:27:53;;;;;;;0.30;0.28;;;15.10;68.20;;;;;;5024072;28;20080;-77
2020/12/26 07:30:20;;;;;;;0.10;0.10;;;15.10;68.10;;;;;;5025352;28;20036;-75
2020/12/26 07:32:55;;;;;;;0.15;0.15;;;15.10;68.20;;;;;;5004967;28;20030;-76
2020/12/26 07:35:21;;;;;;;0.20;0.20;;;15.10;68.10;;;;;;5011715;28;20088;-75
2020/12/26 07:37:57;;;;;;;0.20;0.20;;;15.00;68.10;;;;;;5029486;28;20463;-75
2020/12/26 07:40:30;;;;;;;0.17;0.17;;;15.10;68.10;;;;;;5025155;28;20077;-75
2020/12/26 07:43:02;;;;;;;0.30;0.25;;;15.10;68.10;;;;;;5012353;28;20052;-75
2020/12/26 07:45:33;;;;;;;0.30;0.30;;;15.10;68.10;;;;;;5008211;28;20471;-76
2020/12/26 07:48:05;;;;;;;0.13;0.13;;;15.10;68.10;;;;;;5031557;28;20104;-76
2020/12/26 07:50:44;;;;;;;0.10;0.10;;;15.10;68.10;;;;;;5012969;28;20529;-76
2020/12/26 07:53:14;;;;;;;0.08;0.08;;;15.10;68.10;;;;;;5025231;28;20037;-75
2020/12/26 07:55:40;;;;;;;0.20;0.20;;;15.10;68.10;;;;;;5009218;28;20088;-76
2020/12/26 07:58:23;;;;;;;0.10;0.10;;;15.10;68.10;;;;;;5009605;28;20033;-76
2020/12/26 08:00:53;;;;;;;0.10;0.10;;;15.10;68.00;;;;;;5007090;28;20048;-75
2020/12/26 08:03:19;;;;;;;1.02;0.20;;;15.10;68.00;;;;;;5024507;28;20030;-76
2020/12/26 08:05:49;;;;;;;0.20;0.20;;;15.10;68.00;;;;;;5020824;28;20037;-77
2020/12/26 08:08:27;;;;;;;0.10;0.10;;;15.10;68.00;;;;;;5009726;28;20029;-75
2020/12/26 08:11:00;;;;;;;0.20;0.20;;;15.00;68.00;;;;;;5029788;28;20029;-75
2020/12/26 08:13:27;;;;;;;0.20;0.10;;;15.10;68.00;;;;;;5010355;28;20037;-76
2020/12/26 08:16:10;;;;;;;0.10;0.10;;;15.10;68.00;;;;;;5028597;28;20025;-75
2020/12/26 08:18:42;;;;;;;0.20;0.10;;;15.10;68.00;;;;;;5008401;28;20029;-76
2020/12/26 08:21:12;;;;;;;0.05;0.05;;;15.10;68.00;;;;;;5027341;28;20029;-75
2020/12/26 08:23:42;;;;;;;0.10;0.10;;;15.10;68.00;;;;;;5029011;28;20104;-77
2020/12/26 08:26:08;;;;;;;0.15;0.15;;;15.10;68.00;;;;;;5031278;28;20021;-75
2020/12/26 08:28:41;;;;;;;0.20;0.20;;;15.10;67.90;;;;;;5016801;28;20483;-75
2020/12/26 08:31:10;;;;;;;0.10;0.10;;;15.10;67.90;;;;;;5013174;28;20022;-77
2020/12/26 08:33:45;;;;;;;0.15;0.13;;;15.10;67.90;;;;;;5027427;28;20029;-75
2020/12/26 08:36:24;;;;;;;0.10;0.10;;;15.10;67.90;;;;;;5024664;28;20052;-76
2020/12/26 08:39:03;;;;;;;0.30;0.20;;;15.10;67.90;;;;;;5018137;28;20351;-76
2020/12/26 08:41:31;;;;;;;0.28;0.28;;;15.10;67.90;;;;;;5027740;28;20029;-76
2020/12/26 08:44:01;;;;;;;0.20;0.20;;;15.10;67.90;;;;;;5016089;28;20385;-76
2020/12/26 08:46:27;;;;;;;0.10;0.10;;;15.10;67.90;;;;;;5014545;28;20065;-76
2020/12/26 08:48:55;;;;;;;0.10;0.10;;;15.10;67.80;;;;;;5028442;28;20471;-75
2020/12/26 08:51:29;;;;;;;0.15;0.15;;;15.10;67.80;;;;;;5012395;28;20482;-77
2020/12/26 08:53:58;;;;;;;0.20;0.20;;;15.10;67.80;;;;;;5008792;28;20022;-75
2020/12/26 08:56:38;;;;;;;0.20;0.15;;;15.10;67.80;;;;;;5027753;28;20056;-76
2020/12/26 08:59:11;;;;;;;0.10;0.10;;;15.10;67.80;;;;;;5025223;28;20375;-75
2020/12/26 09:01:49;;;;;;;0.30;0.30;;;15.10;67.80;;;;;;5027275;28;20025;-77
2020/12/26 09:04:15;;;;;;;0.20;0.20;;;15.10;67.80;;;;;;5042883;28;20029;-76
2020/12/26 09:06:42;;;;;;;0.10;0.10;;;15.10;67.70;;;;;;5028844;28;20037;-76
2020/12/26 09:09:18;;;;;;;0.15;0.15;;;15.10;67.70;;;;;;5045949;28;20025;-75
2020/12/26 09:11:48;;;;;;;0.38;0.30;;;15.20;67.60;;;;;;5052219;28;20433;-75
2020/12/26 09:14:28;;;;;;;0.20;0.20;;;15.10;67.70;;;;;;5054004;28;20421;-74
2020/12/26 09:17:05;;;;;;;0.15;0.15;;;15.10;67.70;;;;;;5049210;28;20033;-75
2020/12/26 09:19:44;;;;;;;0.13;0.13;;;15.20;67.70;;;;;;5036328;28;20116;-76
2020/12/26 09:22:13;;;;;;;0.17;0.17;;;15.20;67.60;;;;;;5047921;28;20025;-76
2020/12/26 09:24:43;;;;;;;0.20;0.20;;;15.20;67.60;;;;;;5045331;28;20060;-75
2020/12/26 09:27:23;;;;;;;0.10;0.10;;;15.10;67.60;;;;;;5037668;28;20127;-75
2020/12/26 09:30:01;;;;;;;0.10;0.10;;;15.10;67.60;;;;;;5028041;28;20041;-75
2020/12/26 09:32:31;;;;;;;0.10;0.10;;;15.10;67.70;;;;;;5050515;28;20350;-75
2020/12/26 09:35:19;;;;;;;0.10;0.10;;;15.10;67.70;;;;;;5052031;28;20033;-75
2020/12/26 09:37:58;;;;;;;0.20;0.20;;;15.10;67.70;;;;;;5044411;28;20118;-76
2020/12/26 09:40:34;;;;;;;0.15;0.15;;;15.10;67.70;;;;;;5044291;28;20037;-76
2020/12/26 09:43:06;;;;;;;0.20;0.20;;;15.10;67.70;;;;;;5031739;28;20036;-75
2020/12/26 09:45:32;;;;;;;0.30;0.30;;;15.10;67.60;;;;;;5031936;28;20044;-75
2020/12/26 09:47:58;;;;;;;0.20;0.20;;;15.10;67.70;;;;;;5029779;28;20037;-76
2020/12/26 09:50:27;;;;;;;0.10;0.10;;;15.10;67.60;;;;;;5046789;28;20107;-76
2020/12/26 09:52:58;;;;;;;0.20;0.17;;;15.10;67.60;;;;;;5044102;28;20029;-76
2020/12/26 09:55:27;;;;;;;0.15;0.15;;;15.10;67.60;;;;;;5052411;28;20104;-76
2020/12/26 09:57:53;;;;;;;0.20;0.20;;;15.10;67.60;;;;;;5028041;28;20064;-76
2020/12/26 10:00:23;;;;;;;0.20;0.20;;;15.10;67.60;;;;;;5044598;28;20083;-75
2020/12/26 10:02:56;;;;;;;0.20;0.20;;;15.10;67.60;;;;;;5049706;28;20470;-76
2020/12/26 10:05:22;;;;;;;0.10;0.10;;;15.10;67.60;;;;;;5047247;28;20386;-75
2020/12/26 10:07:48;;;;;;;0.10;0.10;;;15.20;67.50;;;;;;5032021;28;20112;-75
2020/12/26 10:10:18;;;;;;;0.10;0.10;;;15.10;67.50;;;;;;5043494;28;20464;-75
2020/12/26 10:12:43;;;;;;;0.10;0.10;;;15.10;67.60;;;;;;5031625;28;20328;-75
2020/12/26 10:15:21;;;;;;;0.10;0.10;;;15.10;67.50;;;;;;5033567;28;20048;-75
2020/12/26 10:18:01;;;;;;;0.10;0.10;;;15.10;67.60;;;;;;5033917;28;20025;-75
2020/12/26 10:20:31;;;;;;;0.28;0.28;;;15.10;67.50;;;;;;5047945;28;20040;-75
2020/12/26 10:23:03;;;;;;;0.10;0.10;;;15.10;67.50;;;;;;5037545;28;20033;-75
2020/12/26 10:25:33;;;;;;;0.30;0.25;;;15.10;67.50;;;;;;5047488;28;20040;-76
2020/12/26 10:28:03;;;;;;;0.20;0.20;;;15.10;67.50;;;;;;5047445;28;20078;-76
2020/12/26 10:30:29;;;;;;;0.20;0.20;;;15.20;67.50;;;;;;5031546;28;20116;-75
2020/12/26 10:32:55;;;;;;;0.15;0.15;;;15.10;67.50;;;;;;5033606;28;20139;-75
2020/12/26 10:35:25;;;;;;;0.30;0.30;;;15.10;67.50;;;;;;5042285;28;20378;-75
2020/12/26 10:37:55;;;;;;;0.10;0.10;;;15.20;67.50;;;;;;5034046;28;20025;-75
2020/12/26 10:40:21;;;;;;;0.20;0.20;;;15.10;67.50;;;;;;5046662;28;20029;-75
2020/12/26 10:42:47;;;;;;;0.20;0.10;;;15.10;67.50;;;;;;5047533;28;20348;-75
2020/12/26 10:45:12;;;;;;;0.17;0.10;;;15.10;67.50;;;;;;5034543;28;20021;-75
2020/12/26 10:47:43;;;;;;;0.30;0.30;;;15.10;67.50;;;;;;5046400;28;20028;-75
2020/12/26 10:50:14;;;;;;;0.20;0.20;;;15.10;67.50;;;;;;5033140;28;20029;-76
2020/12/26 10:52:45;;;;;;;0.10;0.10;;;15.10;67.40;;;;;;5033077;28;20025;-75
2020/12/26 10:55:17;;;;;;;0.10;0.10;;;15.10;67.40;;;;;;5024468;28;20056;-75
2020/12/26 10:57:56;;;;;;;0.20;0.20;;;15.10;67.50;;;;;;5047805;28;20029;-75
2020/12/26 11:00:21;;;;;;;0.17;0.17;;;15.10;67.40;;;;;;5032670;28;20475;-75
2020/12/26 11:03:01;;;;;;;0.10;0.10;;;15.20;67.40;;;;;;5031301;28;20060;-75
2020/12/26 11:05:31;;;;;;;0.10;0.10;;;15.10;67.40;;;;;;5029118;28;20041;-76
2020/12/26 11:08:10;;;;;;;0.25;0.20;;;15.10;67.40;;;;;;5022228;28;20029;-75
2020/12/26 11:10:36;;;;;;;0.30;0.15;;;15.20;67.40;;;;;;5022039;28;20038;-75
2020/12/26 11:13:02;;;;;;;0.17;0.17;;;15.20;67.40;;;;;;5031109;28;20029;-75
2020/12/26 11:15:27;;;;;;;0.10;0.10;;;15.20;67.40;;;;;;5025429;28;20029;-76
2020/12/26 11:18:16;;;;;;;0.17;0.17;;;15.10;67.40;;;;;;5011396;28;20037;-75
2020/12/26 11:20:41;;;;;;;0.20;0.20;;;15.20;67.30;;;;;;5008046;28;20378;-75
2020/12/26 11:23:22;;;;;;;0.20;0.20;;;15.20;67.30;;;;;;5027405;28;20026;-74
2020/12/26 11:25:53;;;;;;;0.30;0.20;;;15.10;67.30;;;;;;5028100;28;20117;-75
2020/12/26 11:28:31;;;;;;;0.10;0.10;;;15.10;67.30;;;;;;5011983;28;20034;-75
2020/12/26 11:30:57;;;;;;;0.10;0.10;;;15.20;67.20;;;;;;5030363;28;20046;-77
2020/12/26 11:33:28;;;;;;;0.17;0.17;;;15.20;67.20;;;;;;5014052;28;20092;-75
2020/12/26 11:35:59;;;;;;;0.10;0.10;;;15.20;67.10;;;;;;5028529;28;20107;-76
2020/12/26 11:38:25;;;;;;;0.10;0.10;;;15.20;67.10;;;;;;5031349;28;20029;-76
2020/12/26 11:40:55;;;;;;;0.10;0.10;;;15.20;67.10;;;;;;5003596;28;20483;-75
2020/12/26 11:43:25;;;;;;;0.13;0.13;;;15.20;67.20;;;;;;5014295;28;20076;-75
2020/12/26 11:45:56;;;;;;;0.40;0.40;;;15.20;67.20;;;;;;5026807;28;20033;-75
2020/12/26 11:48:24;;;;;;;0.30;0.30;;;15.20;67.20;;;;;;5021523;28;20030;-75
2020/12/26 11:50:55;;;;;;;0.10;0.10;;;15.20;67.20;;;;;;5028048;28;20135;-75
2020/12/26 11:53:20;;;;;;;0.20;0.20;;;15.20;67.20;;;;;;5023359;28;20025;-76
2020/12/26 11:55:46;;;;;;;0.10;0.10;;;15.20;67.20;;;;;;5025679;28;20366;-75
2020/12/26 11:58:26;;;;;;;0.20;0.20;;;15.20;67.20;;;;;;5012105;28;20034;-76
2020/12/26 12:00:57;;;;;;;0.22;0.10;;;15.10;67.20;;;;;;5013519;28;20052;-75
2020/12/26 12:03:27;;;;;;;0.25;0.20;;;15.20;67.30;;;;;;5014523;28;20037;-75
2020/12/26 12:05:53;;;;;;;0.22;0.20;;;15.10;67.30;;;;;;5025403;28;20030;-75
2020/12/26 12:08:23;;;;;;;0.10;0.10;;;15.10;67.30;;;;;;5034660;28;20042;-75
2020/12/26 12:10:51;;;;;;;0.20;0.20;;;15.10;67.30;;;;;;5033809;28;20028;-75
2020/12/26 12:13:31;;;;;;;0.70;0.20;;;15.20;67.20;;;;;;5035332;28;20037;-74
2020/12/26 12:16:00;;;;;;;0.20;0.20;;;15.10;67.20;;;;;;5013835;28;20048;-76
2020/12/26 12:18:25;;;;;;;0.17;0.17;;;15.20;67.20;;;;;;5032155;28;20041;-75
2020/12/26 12:20:55;;;;;;;0.25;0.20;;;15.20;67.00;;;;;;5016955;28;20484;-75
2020/12/26 12:23:21;;;;;;;0.22;0.20;;;15.20;67.00;;;;;;5024170;28;20029;-75
2020/12/26 12:25:51;;;;;;;0.10;0.10;;;15.20;66.90;;;;;;5005876;28;20026;-75
2020/12/26 12:28:17;;;;;;;0.10;0.10;;;15.20;66.90;;;;;;5011921;28;20038;-75
2020/12/26 12:30:44;;;;;;;0.20;0.20;;;15.20;67.00;;;;;;5013541;28;20030;-75
2020/12/26 12:33:15;;;;;;;0.30;0.30;;;15.20;66.90;;;;;;5025556;28;20041;-76
2020/12/26 12:35:45;;;;;;;0.10;0.10;;;15.20;67.00;;;;;;5028264;28;20056;-75
2020/12/26 12:38:16;;;;;;;0.20;0.20;;;15.20;67.00;;;;;;5029296;28;20031;-78
2020/12/26 12:40:55;;;;;;;0.10;0.10;;;15.20;66.90;;;;;;5015560;28;20032;-75
2020/12/26 12:43:25;;;;;;;0.10;0.10;;;15.20;67.00;;;;;;5030352;28;20037;-75
2020/12/26 12:45:54;;;;;;;0.10;0.10;;;15.20;67.00;;;;;;5027936;28;20025;-75
2020/12/26 12:48:19;;;;;;;0.10;0.10;;;15.20;67.00;;;;;;5026769;28;20030;-75
2020/12/26 12:50:48;;;;;;;0.20;0.20;;;15.20;66.90;;;;;;5033745;28;20036;-75
2020/12/26 12:53:26;;;;;;;0.20;0.20;;;15.20;66.90;;;;;;5010771;28;20072;-76
2020/12/26 12:55:57;;;;;;;0.20;0.20;;;15.20;67.00;;;;;;5035712;28;20475;-75
2020/12/26 12:58:22;;;;;;;0.40;0.20;;;15.20;67.00;;;;;;5016206;28;20037;-75
2020/12/26 13:01:00;;;;;;;0.20;0.20;;;15.20;67.00;;;;;;5012819;28;20050;-75
2020/12/26 13:03:26;;;;;;;0.30;0.30;;;15.20;67.00;;;;;;5030267;28;20038;-75
2020/12/26 13:05:52;;;;;;;0.35;0.13;;;15.20;67.00;;;;;;5029787;28;20032;-75
2020/12/26 13:08:20;;;;;;;0.20;0.20;;;15.10;67.00;;;;;;5013589;28;20395;-76